createdAt,value
2023-05-25T00:00:59.902Z,102554.47
2023-05-25T00:03:36.256Z,102556.84
2023-05-25T00:06:05.682Z,102548.06
2023-05-25T00:08:32.913Z,102532.00
2023-05-25T00:11:00.270Z,102553.06
2023-05-25T00:13:28.492Z,102555.53
2023-05-25T00:15:56.370Z,102552.94
2023-05-25T00:18:25.004Z,102559.75
2023-05-25T00:20:58.552Z,102554.44
2023-05-25T00:23:25.723Z,102568.41
2023-05-25T00:25:52.886Z,102554.66
2023-05-25T00:28:21.101Z,102568.56
2023-05-25T00:30:49.358Z,102565.78
2023-05-25T00:33:16.880Z,102565.69
2023-05-25T00:35:45.133Z,102574.22
2023-05-25T00:38:14.252Z,102575.03
2023-05-25T00:40:41.678Z,102563.66
2023-05-25T00:43:13.165Z,102579.28
2023-05-25T00:45:41.616Z,102572.16
2023-05-25T00:48:10.101Z,102573.94
2023-05-25T00:50:42.390Z,102578.16
2023-05-25T00:53:11.332Z,102566.56
2023-05-25T00:55:46.017Z,102576.94
2023-05-25T00:58:14.348Z,102579.31
2023-05-25T01:00:44.324Z,102586.22
2023-05-25T01:03:22.319Z,102573.31
2023-05-25T01:05:53.967Z,102575.78
2023-05-25T01:08:23.992Z,102574.88
2023-05-25T01:10:54.047Z,102580.06
2023-05-25T01:13:22.112Z,102581.84
2023-05-25T01:15:51.395Z,102590.22
2023-05-25T01:18:18.646Z,102580.25
2023-05-25T01:21:17.986Z,102590.00
2023-05-25T01:23:56.321Z,102589.88
2023-05-25T01:26:29.625Z,102588.09
2023-05-25T01:28:58.425Z,102591.50
2023-05-25T01:31:26.224Z,102580.69
2023-05-25T01:33:53.850Z,102591.22
2023-05-25T01:36:21.439Z,102591.22
2023-05-25T01:38:49.920Z,102584.03
2023-05-25T01:41:17.170Z,102587.19
2023-05-25T01:43:45.602Z,102599.56
2023-05-25T01:46:20.140Z,102593.31
2023-05-25T01:49:09.722Z,102600.34
2023-05-25T01:51:55.381Z,102586.03
2023-05-25T01:54:29.028Z,102599.84
2023-05-25T01:57:01.552Z,102605.69
2023-05-25T01:59:31.379Z,102586.41
2023-05-25T02:02:01.143Z,102602.94
2023-05-25T02:04:29.975Z,102591.63
2023-05-25T02:06:57.308Z,102600.38
2023-05-25T02:09:25.215Z,102598.47
2023-05-25T02:11:53.346Z,102599.78
2023-05-25T02:14:21.913Z,102595.34
2023-05-25T02:16:49.120Z,102600.31
2023-05-25T02:19:16.475Z,102602.97
2023-05-25T02:21:44.637Z,102592.44
2023-05-25T02:24:13.487Z,102601.13
2023-05-25T02:26:41.422Z,102599.19
2023-05-25T02:29:08.623Z,102600.06
2023-05-25T02:31:38.307Z,102603.31
2023-05-25T02:34:05.503Z,102610.19
2023-05-25T02:36:35.652Z,102605.59
2023-05-25T02:39:03.402Z,102607.22
2023-05-25T02:41:30.817Z,102609.81
2023-05-25T02:43:59.530Z,102608.06
2023-05-25T02:46:26.950Z,102609.66
2023-05-25T02:48:54.154Z,102617.44
2023-05-25T02:51:25.212Z,102612.31
2023-05-25T02:53:53.656Z,102620.09
2023-05-25T02:56:23.530Z,102611.44
2023-05-25T02:58:51.537Z,102613.94
2023-05-25T03:01:19.346Z,102598.00
2023-05-25T03:03:47.488Z,102620.28
2023-05-25T03:06:15.403Z,102616.66
2023-05-25T03:08:42.837Z,102626.19
2023-05-25T03:11:10.342Z,102633.03
2023-05-25T03:13:40.853Z,102628.69
2023-05-25T03:16:09.282Z,102629.41
2023-05-25T03:18:37.189Z,102631.63
2023-05-25T03:21:09.030Z,102638.41
2023-05-25T03:23:36.496Z,102640.75
2023-05-25T03:26:03.664Z,102629.63
2023-05-25T03:28:31.356Z,102632.38
2023-05-25T03:30:58.493Z,102629.44
2023-05-25T03:33:25.733Z,102630.91
2023-05-25T03:35:53.403Z,102638.59
2023-05-25T03:38:21.465Z,102637.78
2023-05-25T03:40:48.959Z,102637.06
2023-05-25T03:43:17.181Z,102629.22
2023-05-25T03:45:46.166Z,102637.00
2023-05-25T03:48:13.497Z,102637.78
2023-05-25T03:50:41.216Z,102626.41
2023-05-25T03:53:11.512Z,102625.19
2023-05-25T03:55:39.346Z,102631.09
2023-05-25T03:58:06.418Z,102621.50
2023-05-25T04:00:33.724Z,102632.78
2023-05-25T04:03:01.233Z,102634.66
2023-05-25T04:05:29.002Z,102641.00
2023-05-25T04:07:56.514Z,102635.69
2023-05-25T04:10:23.712Z,102636.50
2023-05-25T04:12:52.663Z,102641.91
2023-05-25T04:15:22.466Z,102643.75
2023-05-25T04:17:49.627Z,102632.31
2023-05-25T04:20:16.911Z,102647.63
2023-05-25T04:22:45.377Z,102646.97
2023-05-25T04:25:13.263Z,102660.31
2023-05-25T04:27:42.258Z,102663.63
2023-05-25T04:30:11.165Z,102657.63
2023-05-25T04:32:38.591Z,102669.84
2023-05-25T04:35:05.995Z,102664.75
2023-05-25T04:37:33.523Z,102669.41
2023-05-25T04:40:01.743Z,102665.91
2023-05-25T04:42:28.942Z,102668.09
2023-05-25T04:44:56.312Z,102673.59
2023-05-25T04:47:25.119Z,102667.97
2023-05-25T04:49:54.340Z,102664.75
2023-05-25T04:52:22.339Z,102668.44
2023-05-25T04:54:49.802Z,102678.03
2023-05-25T04:57:17.288Z,102672.34
2023-05-25T04:59:45.560Z,102673.25
2023-05-25T05:02:13.306Z,102680.66
2023-05-25T05:04:41.308Z,102684.66
2023-05-25T05:07:09.305Z,102676.22
2023-05-25T05:09:37.208Z,102687.34
2023-05-25T05:12:04.803Z,102685.94
2023-05-25T05:14:32.382Z,102695.13
2023-05-25T05:16:59.704Z,102697.41
2023-05-25T05:19:26.997Z,102697.81
2023-05-25T05:21:54.384Z,102701.59
2023-05-25T05:24:22.122Z,102700.16
2023-05-25T05:26:58.318Z,102697.84
2023-05-25T05:29:28.256Z,102704.13
2023-05-25T05:31:55.799Z,102711.56
2023-05-25T05:34:23.154Z,102708.38
2023-05-25T05:36:57.900Z,102711.44
2023-05-25T05:39:29.102Z,102701.28
2023-05-25T05:41:56.715Z,102711.16
2023-05-25T05:44:27.090Z,102710.34
2023-05-25T05:47:02.584Z,102711.34
2023-05-25T05:49:31.312Z,102717.72
2023-05-25T05:51:58.798Z,102708.56
2023-05-25T05:54:28.051Z,102722.91
2023-05-25T05:56:55.402Z,102722.34
2023-05-25T05:59:23.009Z,102727.91
2023-05-25T06:01:50.186Z,102736.84
2023-05-25T06:04:19.867Z,102738.16
2023-05-25T06:06:47.229Z,102736.91
2023-05-25T06:09:14.409Z,102731.66
2023-05-25T06:11:41.854Z,102737.16
2023-05-25T06:14:09.244Z,102746.78
2023-05-25T06:16:36.907Z,102749.00
2023-05-25T06:19:04.715Z,102737.31
2023-05-25T06:21:31.976Z,102738.00
2023-05-25T06:23:59.126Z,102742.25
2023-05-25T06:26:27.344Z,102741.41
2023-05-25T06:28:54.528Z,102737.09
2023-05-25T06:31:22.246Z,102746.78
2023-05-25T06:33:49.449Z,102745.00
2023-05-25T06:36:16.891Z,102743.25
2023-05-25T06:38:44.505Z,102751.94
2023-05-25T06:41:15.490Z,102750.09
2023-05-25T06:43:42.769Z,102752.97
2023-05-25T06:46:10.586Z,102749.78
2023-05-25T06:48:39.218Z,102758.63
2023-05-25T06:51:06.446Z,102752.47
2023-05-25T06:53:33.638Z,102762.31
2023-05-25T06:56:01.052Z,102762.88
2023-05-25T06:58:28.838Z,102764.94
2023-05-25T07:00:56.383Z,102768.28
2023-05-25T07:03:23.609Z,102772.16
2023-05-25T07:05:51.396Z,102767.69
2023-05-25T07:08:18.790Z,102775.50
2023-05-25T07:10:46.604Z,102780.97
2023-05-25T07:13:15.560Z,102784.94
2023-05-25T07:15:43.562Z,102783.66
2023-05-25T07:18:12.926Z,102792.59
2023-05-25T07:20:42.314Z,102780.72
2023-05-25T07:23:12.989Z,102788.97
2023-05-25T07:25:41.492Z,102787.59
2023-05-25T07:28:11.951Z,102788.78
2023-05-25T07:30:40.871Z,102785.13
2023-05-25T07:33:08.649Z,102797.56
2023-05-25T07:35:36.319Z,102795.41
2023-05-25T07:38:07.296Z,102798.88
2023-05-25T07:40:34.431Z,102805.91
2023-05-25T07:43:02.051Z,102807.63
2023-05-25T07:45:29.437Z,102803.38
2023-05-25T07:47:56.869Z,102811.72
2023-05-25T07:50:24.208Z,102809.41
2023-05-25T07:52:51.385Z,102810.47
2023-05-25T07:55:20.411Z,102802.81
2023-05-25T07:57:47.540Z,102803.09
2023-05-25T08:00:15.605Z,102810.72
2023-05-25T08:02:42.955Z,102820.84
2023-05-25T08:05:10.570Z,102814.50
2023-05-25T08:07:40.086Z,102828.47
2023-05-25T08:10:09.734Z,102824.13
2023-05-25T08:12:48.042Z,102824.47
2023-05-25T08:15:17.215Z,102830.44
2023-05-25T08:17:44.930Z,102836.47
2023-05-25T08:20:12.959Z,102820.59
2023-05-25T08:22:40.730Z,102828.06
2023-05-25T08:25:09.780Z,102835.28
2023-05-25T08:27:39.664Z,102829.16
2023-05-25T08:30:07.644Z,102832.94
2023-05-25T08:32:34.958Z,102829.63
2023-05-25T08:35:04.709Z,102832.72
2023-05-25T08:37:32.362Z,102843.34
2023-05-25T08:40:02.252Z,102838.09
2023-05-25T08:42:29.875Z,102843.19
2023-05-25T08:44:57.360Z,102841.19
2023-05-25T08:47:28.100Z,102842.03
2023-05-25T08:49:56.379Z,102843.94
2023-05-25T08:52:29.023Z,102848.91
2023-05-25T08:55:01.875Z,102835.00
2023-05-25T08:57:37.301Z,102840.63
2023-05-25T09:00:12.092Z,102838.09
2023-05-25T09:02:51.481Z,102841.72
2023-05-25T09:05:19.670Z,102836.53
2023-05-25T09:07:48.108Z,102829.66
2023-05-25T09:10:18.919Z,102823.72
2023-05-25T09:12:46.809Z,102833.31
2023-05-25T09:15:14.387Z,102837.66
2023-05-25T09:17:41.805Z,102833.25
2023-05-25T09:20:13.976Z,102841.31
2023-05-25T09:22:42.253Z,102834.91
2023-05-25T09:25:11.578Z,102825.19
2023-05-25T09:27:39.324Z,102837.38
2023-05-25T09:30:07.633Z,102830.66
2023-05-25T09:32:36.222Z,102834.56
2023-05-25T09:35:14.791Z,102829.84
2023-05-25T09:37:43.549Z,102824.72
2023-05-25T09:40:11.754Z,102834.31
2023-05-25T09:42:39.138Z,102831.41
2023-05-25T09:45:07.550Z,102836.09
2023-05-25T09:47:37.679Z,102836.84
2023-05-25T09:50:05.809Z,102844.13
2023-05-25T09:52:33.202Z,102844.38
2023-05-25T09:55:02.388Z,102841.78
2023-05-25T09:57:30.212Z,102843.25
2023-05-25T09:59:57.456Z,102823.50
2023-05-25T10:02:24.929Z,102818.84
2023-05-25T10:04:55.035Z,102818.34
2023-05-25T10:07:22.869Z,102834.44
2023-05-25T10:09:53.592Z,102828.19
2023-05-25T10:12:24.257Z,102827.75
2023-05-25T10:14:52.076Z,102837.69
2023-05-25T10:17:23.549Z,102825.22
2023-05-25T10:19:57.631Z,102828.66
2023-05-25T10:22:40.754Z,102836.72
2023-05-25T10:25:21.133Z,102833.16
2023-05-25T10:28:12.678Z,102837.38
2023-05-25T10:30:41.420Z,102835.13
2023-05-25T10:33:10.942Z,102842.16
2023-05-25T10:35:56.130Z,102843.69
2023-05-25T10:38:29.060Z,102840.97
2023-05-25T10:40:56.345Z,102842.06
2023-05-25T10:43:24.592Z,102849.91
2023-05-25T10:45:52.449Z,102855.00
2023-05-25T10:48:21.935Z,102848.47
2023-05-25T10:50:52.729Z,102842.47
2023-05-25T10:53:23.830Z,102840.41
2023-05-25T10:55:53.876Z,102843.78
2023-05-25T10:58:23.461Z,102850.81
2023-05-25T11:01:07.479Z,102839.75
2023-05-25T11:03:53.334Z,102842.59
2023-05-25T11:06:22.768Z,102842.50
2023-05-25T11:08:55.943Z,102840.81
2023-05-25T11:11:43.366Z,102850.56
2023-05-25T11:14:44.504Z,102844.66
2023-05-25T11:17:22.383Z,102845.34
2023-05-25T11:19:54.951Z,102850.69
2023-05-25T11:22:33.616Z,102850.16
2023-05-25T11:25:02.838Z,102842.28
2023-05-25T11:27:31.888Z,102850.41
2023-05-25T11:30:00.778Z,102854.75
2023-05-25T11:32:28.559Z,102848.94
2023-05-25T11:34:58.108Z,102853.69
2023-05-25T11:37:31.606Z,102846.31
2023-05-25T11:39:59.094Z,102843.38
2023-05-25T11:42:26.400Z,102844.34
2023-05-25T11:44:53.722Z,102845.25
2023-05-25T11:47:25.217Z,102845.22
2023-05-25T11:49:55.960Z,102849.28
2023-05-25T11:52:23.350Z,102843.03
2023-05-25T11:54:51.069Z,102844.47
2023-05-25T11:57:24.690Z,102840.72
2023-05-25T11:59:57.725Z,102834.94
2023-05-25T12:02:25.237Z,102838.41
2023-05-25T12:04:56.332Z,102834.03
2023-05-25T12:07:24.462Z,102826.81
2023-05-25T12:10:12.198Z,102827.16
2023-05-25T12:12:49.477Z,102823.97
2023-05-25T12:15:27.743Z,102821.69
2023-05-25T12:17:55.050Z,102815.72
2023-05-25T12:20:22.674Z,102818.88
2023-05-25T12:22:50.111Z,102802.25
2023-05-25T12:25:22.143Z,102827.06
2023-05-25T12:27:49.711Z,102809.84
2023-05-25T12:30:17.433Z,102821.66
2023-05-25T12:33:04.262Z,102822.00
2023-05-25T12:35:50.029Z,102824.50
2023-05-25T12:38:19.862Z,102822.31
2023-05-25T12:40:47.886Z,102818.19
2023-05-25T12:43:17.454Z,102834.69
2023-05-25T12:45:47.843Z,102832.06
2023-05-25T12:48:15.916Z,102830.34
2023-05-25T12:50:58.706Z,102828.06
2023-05-25T12:53:27.317Z,102833.75
2023-05-25T12:56:02.803Z,102825.16
2023-05-25T12:58:30.244Z,102824.91
2023-05-25T13:00:57.430Z,102828.09
2023-05-25T13:03:25.024Z,102818.69
2023-05-25T13:06:00.635Z,102816.84
2023-05-25T13:08:28.849Z,102819.75
2023-05-25T13:10:56.439Z,102811.03
2023-05-25T13:13:23.628Z,102799.34
2023-05-25T13:15:51.254Z,102800.22
2023-05-25T13:18:18.514Z,102809.84
2023-05-25T13:20:49.527Z,102791.34
2023-05-25T13:23:18.599Z,102788.47
2023-05-25T13:25:47.020Z,102797.03
2023-05-25T13:28:14.314Z,102793.47
2023-05-25T13:30:42.830Z,102796.16
2023-05-25T13:33:11.054Z,102789.75
2023-05-25T13:35:45.886Z,102791.03
2023-05-25T13:38:17.273Z,102789.78
2023-05-25T13:40:48.113Z,102782.25
2023-05-25T13:43:15.857Z,102781.41
2023-05-25T13:45:43.384Z,102773.47
2023-05-25T13:48:10.701Z,102774.31
2023-05-25T13:50:38.402Z,102773.00
2023-05-25T13:53:05.499Z,102779.88
2023-05-25T13:55:32.825Z,102776.53
2023-05-25T13:58:00.047Z,102775.72
2023-05-25T14:00:27.857Z,102762.88
2023-05-25T14:02:55.171Z,102761.94
2023-05-25T14:05:22.870Z,102761.81
2023-05-25T14:07:50.325Z,102763.19
2023-05-25T14:10:18.411Z,102779.22
2023-05-25T14:12:46.417Z,102773.34
2023-05-25T14:15:13.607Z,102765.56
2023-05-25T14:17:40.862Z,102770.28
2023-05-25T14:20:09.625Z,102760.09
2023-05-25T14:22:39.059Z,102765.50
2023-05-25T14:25:06.777Z,102764.03
2023-05-25T14:27:33.937Z,102758.06
2023-05-25T14:30:01.047Z,102750.72
2023-05-25T14:32:28.367Z,102760.41
2023-05-25T14:34:55.642Z,102755.25
2023-05-25T14:37:22.776Z,102745.53
2023-05-25T14:39:50.150Z,102744.66
2023-05-25T14:42:17.586Z,102755.22
2023-05-25T14:44:45.645Z,102759.81
2023-05-25T14:47:13.103Z,102756.28
2023-05-25T14:49:40.733Z,102749.28
2023-05-25T14:52:08.888Z,102748.31
2023-05-25T14:54:36.225Z,102745.59
2023-05-25T14:57:04.236Z,102751.03
2023-05-25T14:59:32.931Z,102751.03
2023-05-25T15:02:00.405Z,102756.06
2023-05-25T15:04:30.098Z,102758.88
2023-05-25T15:06:58.198Z,102757.16
2023-05-25T15:09:25.523Z,102754.59
2023-05-25T15:11:52.922Z,102752.78
2023-05-25T15:14:20.413Z,102751.94
2023-05-25T15:16:47.671Z,102750.19
2023-05-25T15:19:18.472Z,102754.56
2023-05-25T15:21:45.788Z,102751.94
2023-05-25T15:24:16.735Z,102748.22
2023-05-25T15:26:44.700Z,102747.53
2023-05-25T15:29:12.032Z,102744.94
2023-05-25T15:31:39.566Z,102742.22
2023-05-25T15:34:06.864Z,102740.28
2023-05-25T15:36:33.991Z,102744.78
2023-05-25T15:39:01.463Z,102745.78
2023-05-25T15:41:29.040Z,102750.19
2023-05-25T15:44:01.939Z,102751.84
2023-05-25T15:46:29.232Z,102739.50
2023-05-25T15:48:56.621Z,102734.34
2023-05-25T15:51:24.033Z,102743.94
2023-05-25T15:53:51.420Z,102731.72
2023-05-25T15:56:18.638Z,102730.69
2023-05-25T15:58:49.018Z,102735.00
2023-05-25T16:01:16.849Z,102740.09
2023-05-25T16:03:45.289Z,102736.97
2023-05-25T16:06:12.902Z,102738.75
2023-05-25T16:08:40.076Z,102740.50
2023-05-25T16:11:07.614Z,102725.56
2023-05-25T16:13:34.911Z,102737.00
2023-05-25T16:16:02.255Z,102728.06
2023-05-25T16:18:29.446Z,102742.28
2023-05-25T16:20:57.770Z,102737.84
2023-05-25T16:23:25.604Z,102743.78
2023-05-25T16:25:53.837Z,102733.19
2023-05-25T16:28:21.384Z,102742.16
2023-05-25T16:30:48.588Z,102734.19
2023-05-25T16:33:16.074Z,102737.75
2023-05-25T16:35:45.699Z,102750.00
2023-05-25T16:38:13.112Z,102746.09
2023-05-25T16:40:41.012Z,102756.56
2023-05-25T16:43:09.158Z,102747.41
2023-05-25T16:45:36.582Z,102753.34
2023-05-25T16:48:04.422Z,102748.00
2023-05-25T16:50:31.962Z,102741.75
2023-05-25T16:52:59.240Z,102741.78
2023-05-25T16:55:26.473Z,102740.16
2023-05-25T16:57:53.684Z,102754.44
2023-05-25T17:00:21.770Z,102745.28
2023-05-25T17:02:49.328Z,102739.44
2023-05-25T17:05:16.592Z,102748.00
2023-05-25T17:07:46.227Z,102747.34
2023-05-25T17:10:15.595Z,102752.50
2023-05-25T17:12:42.946Z,102742.97
2023-05-25T17:15:11.418Z,102747.09
2023-05-25T17:17:38.699Z,102735.22
2023-05-25T17:20:07.032Z,102746.31
2023-05-25T17:22:34.299Z,102746.41
2023-05-25T17:25:01.609Z,102746.88
2023-05-25T17:27:29.010Z,102749.66
2023-05-25T17:29:56.376Z,102750.63
2023-05-25T17:32:23.552Z,102753.31
2023-05-25T17:34:50.923Z,102758.16
2023-05-25T17:37:19.056Z,102757.66
2023-05-25T17:39:46.976Z,102760.41
2023-05-25T17:42:14.405Z,102758.50
2023-05-25T17:44:42.600Z,102760.38
2023-05-25T17:47:11.221Z,102748.59
2023-05-25T17:49:41.954Z,102753.06
2023-05-25T17:52:09.269Z,102755.09
2023-05-25T17:54:36.683Z,102751.34
2023-05-25T17:57:04.593Z,102759.25
2023-05-25T17:59:31.839Z,102766.94
2023-05-25T18:01:59.277Z,102771.34
2023-05-25T18:04:26.685Z,102767.56
2023-05-25T18:06:54.125Z,102770.28
2023-05-25T18:09:22.164Z,102767.25
2023-05-25T18:11:49.391Z,102779.34
2023-05-25T18:14:16.642Z,102778.56
2023-05-25T18:16:45.221Z,102770.38
2023-05-25T18:19:15.688Z,102775.34
2023-05-25T18:21:42.830Z,102780.06
2023-05-25T18:24:10.564Z,102784.16
2023-05-25T18:26:38.366Z,102784.97
2023-05-25T18:29:05.764Z,102784.28
2023-05-25T18:31:33.401Z,102795.06
2023-05-25T18:34:00.979Z,102783.78
2023-05-25T18:36:28.312Z,102781.72
2023-05-25T18:38:55.646Z,102782.25
2023-05-25T18:41:24.482Z,102790.25
2023-05-25T18:43:52.309Z,102784.66
2023-05-25T18:46:19.952Z,102788.06
2023-05-25T18:48:47.129Z,102792.47
2023-05-25T18:51:15.820Z,102792.66
2023-05-25T18:53:47.751Z,102800.13
2023-05-25T18:56:15.426Z,102807.69
2023-05-25T18:58:42.693Z,102804.50
2023-05-25T19:01:09.787Z,102804.09
2023-05-25T19:03:37.541Z,102802.91
2023-05-25T19:06:05.180Z,102800.09
2023-05-25T19:08:32.512Z,102801.53
2023-05-25T19:10:59.774Z,102804.03
2023-05-25T19:13:26.982Z,102805.06
2023-05-25T19:15:54.176Z,102809.13
2023-05-25T19:18:22.302Z,102811.88
2023-05-25T19:20:49.895Z,102808.09
2023-05-25T19:23:19.585Z,102815.53
2023-05-25T19:25:47.306Z,102817.22
2023-05-25T19:28:15.479Z,102818.94
2023-05-25T19:30:42.704Z,102817.53
2023-05-25T19:33:10.081Z,102828.81
2023-05-25T19:35:38.057Z,102830.53
2023-05-25T19:38:05.532Z,102831.50
2023-05-25T19:40:33.358Z,102822.59
2023-05-25T19:43:00.843Z,102839.66
2023-05-25T19:45:28.463Z,102837.59
2023-05-25T19:47:57.058Z,102846.84
2023-05-25T19:50:28.083Z,102849.00
2023-05-25T19:52:55.241Z,102847.41
2023-05-25T19:55:22.885Z,102844.75
2023-05-25T19:57:50.224Z,102846.25
2023-05-25T20:00:25.915Z,102845.88
2023-05-25T20:02:54.358Z,102849.88
2023-05-25T20:05:22.277Z,102861.75
2023-05-25T20:07:52.246Z,102856.88
2023-05-25T20:10:22.342Z,102867.28
2023-05-25T20:12:49.954Z,102866.84
2023-05-25T20:15:17.657Z,102872.06
2023-05-25T20:17:46.090Z,102871.75
2023-05-25T20:20:14.101Z,102873.94
2023-05-25T20:22:41.503Z,102877.41
2023-05-25T20:25:11.424Z,102883.63
2023-05-25T20:27:38.976Z,102886.84
2023-05-25T20:30:07.079Z,102876.97
2023-05-25T20:32:34.523Z,102889.84
2023-05-25T20:35:02.008Z,102881.84
2023-05-25T20:37:29.483Z,102890.53
2023-05-25T20:39:57.159Z,102888.56
2023-05-25T20:42:24.863Z,102884.56
2023-05-25T20:44:52.979Z,102883.00
2023-05-25T20:47:21.093Z,102892.44
2023-05-25T20:49:48.433Z,102890.94
2023-05-25T20:52:16.172Z,102887.34
2023-05-25T20:54:45.320Z,102892.00
2023-05-25T20:57:13.219Z,102892.50
2023-05-25T20:59:40.692Z,102900.50
2023-05-25T21:02:08.380Z,102908.09
2023-05-25T21:04:35.791Z,102905.34
2023-05-25T21:07:02.953Z,102902.69
2023-05-25T21:09:30.163Z,102903.56
2023-05-25T21:11:57.625Z,102908.97
2023-05-25T21:14:25.301Z,102908.22
2023-05-25T21:16:52.509Z,102909.31
2023-05-25T21:19:20.973Z,102897.88
2023-05-25T21:21:48.283Z,102909.94
2023-05-25T21:24:15.722Z,102910.22
2023-05-25T21:26:43.074Z,102909.63
2023-05-25T21:29:10.402Z,102911.19
2023-05-25T21:31:38.410Z,102910.69
2023-05-25T21:34:05.739Z,102906.09
2023-05-25T21:36:33.065Z,102909.72
2023-05-25T21:39:00.414Z,102921.06
2023-05-25T21:41:28.195Z,102920.16
2023-05-25T21:43:55.695Z,102914.03
2023-05-25T21:46:22.885Z,102911.22
2023-05-25T21:48:50.055Z,102910.84
2023-05-25T21:51:17.398Z,102915.91
2023-05-25T21:53:47.319Z,102918.69
2023-05-25T21:56:15.595Z,102918.50
2023-05-25T21:58:42.854Z,102923.53
2023-05-25T22:01:10.086Z,102910.28
2023-05-25T22:03:37.351Z,102905.16
2023-05-25T22:06:04.690Z,102921.25
2023-05-25T22:08:31.840Z,102914.84
2023-05-25T22:10:59.001Z,102913.97
2023-05-25T22:13:26.150Z,102929.81
2023-05-25T22:15:53.279Z,102929.53
2023-05-25T22:18:21.236Z,102939.47
2023-05-25T22:20:48.361Z,102925.22
2023-05-25T22:23:15.709Z,102927.91
2023-05-25T22:25:43.052Z,102923.38
2023-05-25T22:28:11.428Z,102923.72
2023-05-25T22:30:38.701Z,102920.31
2023-05-25T22:33:06.142Z,102925.22
2023-05-25T22:35:33.476Z,102920.53
2023-05-25T22:38:00.707Z,102923.28
2023-05-25T22:40:28.039Z,102921.66
2023-05-25T22:42:55.412Z,102917.22
2023-05-25T22:45:22.912Z,102923.44
2023-05-25T22:47:50.119Z,102913.09
2023-05-25T22:50:17.594Z,102919.94
2023-05-25T22:52:45.471Z,102912.97
2023-05-25T22:55:12.766Z,102925.63
2023-05-25T22:57:40.196Z,102923.97
2023-05-25T23:00:08.680Z,102920.81
2023-05-25T23:02:36.351Z,102923.84
2023-05-25T23:05:05.649Z,102918.56
2023-05-25T23:07:33.222Z,102923.34
2023-05-25T23:10:00.530Z,102920.78
2023-05-25T23:12:28.366Z,102922.06
2023-05-25T23:14:59.440Z,102916.97
2023-05-25T23:17:26.888Z,102914.00
2023-05-25T23:19:55.023Z,102912.28
2023-05-25T23:22:22.422Z,102911.97
2023-05-25T23:24:49.576Z,102910.81
2023-05-25T23:27:16.887Z,102912.50
2023-05-25T23:29:44.233Z,102918.66
2023-05-25T23:32:11.571Z,102913.97
2023-05-25T23:34:38.896Z,102915.69
2023-05-25T23:37:06.725Z,102922.47
2023-05-25T23:39:34.108Z,102921.41
2023-05-25T23:42:02.428Z,102917.66
2023-05-25T23:44:29.580Z,102936.03
2023-05-25T23:46:56.747Z,102930.84
2023-05-25T23:49:24.081Z,102929.19
2023-05-25T23:51:51.936Z,102933.44
2023-05-25T23:54:19.553Z,102929.81
2023-05-25T23:56:46.859Z,102929.81
2023-05-25T23:59:15.322Z,102930.22
